sensor_id;sensor_type;location;lat;lon;timestamp;temperature;humidity
1049;DHT22;513;51.444;7.196;2022-07-18T00:02:03;17.40;99.90
1049;DHT22;513;51.444;7.196;2022-07-18T00:04:30;17.40;99.90
1049;DHT22;513;51.444;7.196;2022-07-18T00:06:57;17.40;99.90
1049;DHT22;513;51.444;7.196;2022-07-18T00:09:24;17.30;99.90
1049;DHT22;513;51.444;7.196;2022-07-18T00:11:51;17.30;99.90
1049;DHT22;513;51.444;7.196;2022-07-18T00:14:19;17.30;99.90
1049;DHT22;513;51.444;7.196;2022-07-18T00:16:46;17.20;99.90
1049;DHT22;513;51.444;7.196;2022-07-18T00:19:14;17.20;99.90
1049;DHT22;513;51.444;7.196;2022-07-18T00:21:41;17.10;99.90
1049;DHT22;513;51.444;7.196;2022-07-18T00:24:07;17.20;99.90
1049;DHT22;513;51.444;7.196;2022-07-18T00:26:34;17.20;99.90
1049;DHT22;513;51.444;7.196;2022-07-18T00:29:01;17.10;99.90
1049;DHT22;513;51.444;7.196;2022-07-18T00:31:27;17.10;99.90
1049;DHT22;513;51.444;7.196;2022-07-18T00:33:54;17.10;99.90
1049;DHT22;513;51.444;7.196;2022-07-18T00:36:22;17.10;99.90
1049;DHT22;513;51.444;7.196;2022-07-18T00:38:49;17.20;99.90
1049;DHT22;513;51.444;7.196;2022-07-18T00:41:16;17.10;99.90
1049;DHT22;513;51.444;7.196;2022-07-18T00:43:43;17.20;99.90
1049;DHT22;513;51.444;7.196;2022-07-18T00:46:10;17.10;99.90
1049;DHT22;513;51.444;7.196;2022-07-18T00:48:37;17.10;99.90
1049;DHT22;513;51.444;7.196;2022-07-18T00:51:04;17.10;99.90
1049;DHT22;513;51.444;7.196;2022-07-18T00:53:33;17.20;99.90
1049;DHT22;513;51.444;7.196;2022-07-18T00:56:01;17.20;99.90
1049;DHT22;513;51.444;7.196;2022-07-18T00:58:29;17.20;99.90
1049;DHT22;513;51.444;7.196;2022-07-18T01:00:56;17.20;99.90
1049;DHT22;513;51.444;7.196;2022-07-18T01:03:40;17.10;99.90
1049;DHT22;513;51.444;7.196;2022-07-18T01:06:07;17.10;99.90
1049;DHT22;513;51.444;7.196;2022-07-18T01:08:35;17.10;99.90
1049;DHT22;513;51.444;7.196;2022-07-18T01:11:03;17.10;99.90
1049;DHT22;513;51.444;7.196;2022-07-18T01:13:30;17.10;99.90
1049;DHT22;513;51.444;7.196;2022-07-18T01:15:56;17.10;99.90
1049;DHT22;513;51.444;7.196;2022-07-18T01:18:23;17.10;99.90
1049;DHT22;513;51.444;7.196;2022-07-18T01:20:51;17.00;99.90
1049;DHT22;513;51.444;7.196;2022-07-18T01:23:18;17.00;99.90
1049;DHT22;513;51.444;7.196;2022-07-18T01:25:44;17.00;99.90
1049;DHT22;513;51.444;7.196;2022-07-18T01:28:11;16.90;99.90
1049;DHT22;513;51.444;7.196;2022-07-18T01:30:38;16.90;99.90
1049;DHT22;513;51.444;7.196;2022-07-18T01:33:05;16.90;99.90
1049;DHT22;513;51.444;7.196;2022-07-18T01:35:32;16.90;99.90
1049;DHT22;513;51.444;7.196;2022-07-18T01:38:01;16.90;99.90
1049;DHT22;513;51.444;7.196;2022-07-18T01:40:28;16.80;99.90
1049;DHT22;513;51.444;7.196;2022-07-18T01:42:56;16.80;99.90
1049;DHT22;513;51.444;7.196;2022-07-18T01:45:23;16.70;99.90
1049;DHT22;513;51.444;7.196;2022-07-18T01:47:50;16.60;99.90
1049;DHT22;513;51.444;7.196;2022-07-18T01:50:17;16.60;99.90
1049;DHT22;513;51.444;7.196;2022-07-18T01:52:43;16.50;99.90
1049;DHT22;513;51.444;7.196;2022-07-18T01:55:12;16.40;99.90
1049;DHT22;513;51.444;7.196;2022-07-18T01:57:39;16.40;99.90
1049;DHT22;513;51.444;7.196;2022-07-18T02:00:08;16.30;99.90
1049;DHT22;513;51.444;7.196;2022-07-18T02:02:36;16.20;99.90
1049;DHT22;513;51.444;7.196;2022-07-18T02:05:03;16.20;99.90
1049;DHT22;513;51.444;7.196;2022-07-18T02:07:31;16.10;99.90
1049;DHT22;513;51.444;7.196;2022-07-18T02:09:59;16.10;99.90
1049;DHT22;513;51.444;7.196;2022-07-18T02:12:27;16.00;99.90
1049;DHT22;513;51.444;7.196;2022-07-18T02:14:54;16.00;99.90
1049;DHT22;513;51.444;7.196;2022-07-18T02:17:21;15.90;99.90
1049;DHT22;513;51.444;7.196;2022-07-18T02:19:48;15.80;99.90
1049;DHT22;513;51.444;7.196;2022-07-18T02:22:15;15.70;99.90
1049;DHT22;513;51.444;7.196;2022-07-18T02:24:41;15.70;99.90
1049;DHT22;513;51.444;7.196;2022-07-18T02:27:08;15.60;99.90
1049;DHT22;513;51.444;7.196;2022-07-18T02:29:37;15.50;99.90
1049;DHT22;513;51.444;7.196;2022-07-18T02:32:04;15.50;99.90
1049;DHT22;513;51.444;7.196;2022-07-18T02:34:31;15.50;99.90
1049;DHT22;513;51.444;7.196;2022-07-18T02:36:57;15.40;99.90
1049;DHT22;513;51.444;7.196;2022-07-18T02:39:24;15.40;99.90
1049;DHT22;513;51.444;7.196;2022-07-18T02:41:51;15.40;99.90
1049;DHT22;513;51.444;7.196;2022-07-18T02:44:18;15.40;99.90
1049;DHT22;513;51.444;7.196;2022-07-18T02:46:46;15.30;99.90
1049;DHT22;513;51.444;7.196;2022-07-18T02:49:12;15.30;99.90
1049;DHT22;513;51.444;7.196;2022-07-18T02:51:52;15.30;99.90
1049;DHT22;513;51.444;7.196;2022-07-18T02:54:19;15.30;99.90
1049;DHT22;513;51.444;7.196;2022-07-18T02:56:45;15.30;99.90
1049;DHT22;513;51.444;7.196;2022-07-18T02:59:12;15.30;99.90
1049;DHT22;513;51.444;7.196;2022-07-18T03:01:39;15.40;99.90
1049;DHT22;513;51.444;7.196;2022-07-18T03:04:07;15.40;99.90
1049;DHT22;513;51.444;7.196;2022-07-18T03:06:33;15.40;99.90
1049;DHT22;513;51.444;7.196;2022-07-18T03:09:00;15.50;99.90
1049;DHT22;513;51.444;7.196;2022-07-18T03:11:27;15.50;99.90
1049;DHT22;513;51.444;7.196;2022-07-18T03:13:53;15.50;99.90
1049;DHT22;513;51.444;7.196;2022-07-18T03:16:20;15.50;99.90
1049;DHT22;513;51.444;7.196;2022-07-18T03:18:46;15.60;99.90
1049;DHT22;513;51.444;7.196;2022-07-18T03:21:14;15.60;99.90
1049;DHT22;513;51.444;7.196;2022-07-18T03:23:41;15.60;99.90
1049;DHT22;513;51.444;7.196;2022-07-18T03:26:08;15.60;99.90
1049;DHT22;513;51.444;7.196;2022-07-18T03:28:34;15.60;99.90
1049;DHT22;513;51.444;7.196;2022-07-18T03:31:01;15.70;99.90
1049;DHT22;513;51.444;7.196;2022-07-18T03:33:29;15.80;99.90
1049;DHT22;513;51.444;7.196;2022-07-18T03:35:56;15.80;99.90
1049;DHT22;513;51.444;7.196;2022-07-18T03:38:24;15.90;99.90
1049;DHT22;513;51.444;7.196;2022-07-18T03:40:51;15.90;99.90
1049;DHT22;513;51.444;7.196;2022-07-18T03:43:17;16.00;99.90
1049;DHT22;513;51.444;7.196;2022-07-18T03:45:44;16.10;99.90
1049;DHT22;513;51.444;7.196;2022-07-18T03:48:11;16.10;99.90
1049;DHT22;513;51.444;7.196;2022-07-18T03:50:38;16.20;99.90
1049;DHT22;513;51.444;7.196;2022-07-18T03:53:04;16.20;99.90
1049;DHT22;513;51.444;7.196;2022-07-18T03:55:32;16.30;99.90
1049;DHT22;513;51.444;7.196;2022-07-18T03:57:59;16.40;99.90
1049;DHT22;513;51.444;7.196;2022-07-18T04:00:26;16.50;99.90
1049;DHT22;513;51.444;7.196;2022-07-18T04:02:52;16.60;99.90
1049;DHT22;513;51.444;7.196;2022-07-18T04:05:19;16.60;99.90
1049;DHT22;513;51.444;7.196;2022-07-18T04:07:46;16.60;99.90
1049;DHT22;513;51.444;7.196;2022-07-18T04:10:13;16.60;99.90
1049;DHT22;513;51.444;7.196;2022-07-18T04:12:48;16.70;99.90
1049;DHT22;513;51.444;7.196;2022-07-18T04:15:16;16.70;99.90
1049;DHT22;513;51.444;7.196;2022-07-18T04:17:42;16.80;99.90
1049;DHT22;513;51.444;7.196;2022-07-18T04:20:10;16.90;99.90
1049;DHT22;513;51.444;7.196;2022-07-18T04:22:47;16.90;99.90
1049;DHT22;513;51.444;7.196;2022-07-18T04:25:14;16.90;99.90
1049;DHT22;513;51.444;7.196;2022-07-18T04:27:41;17.00;99.90
1049;DHT22;513;51.444;7.196;2022-07-18T04:30:10;17.00;99.90
1049;DHT22;513;51.444;7.196;2022-07-18T04:32:37;17.00;99.90
1049;DHT22;513;51.444;7.196;2022-07-18T04:35:05;17.10;99.90
1049;DHT22;513;51.444;7.196;2022-07-18T04:37:32;17.20;99.90
1049;DHT22;513;51.444;7.196;2022-07-18T04:39:59;17.40;99.90
1049;DHT22;513;51.444;7.196;2022-07-18T04:42:26;17.70;99.90
1049;DHT22;513;51.444;7.196;2022-07-18T04:44:53;17.90;99.90
1049;DHT22;513;51.444;7.196;2022-07-18T04:47:21;18.10;99.90
1049;DHT22;513;51.444;7.196;2022-07-18T04:49:48;18.30;99.90
1049;DHT22;513;51.444;7.196;2022-07-18T04:52:14;18.30;99.90
1049;DHT22;513;51.444;7.196;2022-07-18T04:54:41;18.40;99.90
1049;DHT22;513;51.444;7.196;2022-07-18T04:57:08;18.50;99.90
1049;DHT22;513;51.444;7.196;2022-07-18T04:59:36;18.50;99.90
1049;DHT22;513;51.444;7.196;2022-07-18T05:02:03;18.60;99.90
1049;DHT22;513;51.444;7.196;2022-07-18T05:04:31;18.70;99.90
1049;DHT22;513;51.444;7.196;2022-07-18T05:06:58;18.80;99.90
1049;DHT22;513;51.444;7.196;2022-07-18T05:09:25;18.80;99.90
1049;DHT22;513;51.444;7.196;2022-07-18T05:11:52;18.90;99.90
1049;DHT22;513;51.444;7.196;2022-07-18T05:14:18;18.80;99.90
1049;DHT22;513;51.444;7.196;2022-07-18T05:16:46;18.90;99.90
1049;DHT22;513;51.444;7.196;2022-07-18T05:19:13;19.10;99.90
1049;DHT22;513;51.444;7.196;2022-07-18T05:21:42;19.10;99.90
1049;DHT22;513;51.444;7.196;2022-07-18T05:24:09;19.20;99.90
1049;DHT22;513;51.444;7.196;2022-07-18T05:26:35;19.20;99.90
1049;DHT22;513;51.444;7.196;2022-07-18T05:29:02;19.30;99.90
1049;DHT22;513;51.444;7.196;2022-07-18T05:31:29;19.40;99.90
1049;DHT22;513;51.444;7.196;2022-07-18T05:33:55;19.50;99.90
1049;DHT22;513;51.444;7.196;2022-07-18T05:36:22;19.60;99.90
1049;DHT22;513;51.444;7.196;2022-07-18T05:38:50;19.60;99.90
1049;DHT22;513;51.444;7.196;2022-07-18T05:41:17;19.50;99.90
1049;DHT22;513;51.444;7.196;2022-07-18T05:43:43;19.50;99.90
1049;DHT22;513;51.444;7.196;2022-07-18T05:46:10;19.50;99.90
1049;DHT22;513;51.444;7.196;2022-07-18T05:48:37;19.60;99.90
1049;DHT22;513;51.444;7.196;2022-07-18T05:51:06;19.60;99.90
1049;DHT22;513;51.444;7.196;2022-07-18T05:53:33;19.60;99.90
1049;DHT22;513;51.444;7.196;2022-07-18T05:56:01;19.60;99.90
1049;DHT22;513;51.444;7.196;2022-07-18T05:58:27;19.60;99.90
1049;DHT22;513;51.444;7.196;2022-07-18T06:00:54;19.60;99.90
1049;DHT22;513;51.444;7.196;2022-07-18T06:03:21;19.70;99.90
1049;DHT22;513;51.444;7.196;2022-07-18T06:05:47;19.70;99.90
1049;DHT22;513;51.444;7.196;2022-07-18T06:08:14;19.80;99.90
1049;DHT22;513;51.444;7.196;2022-07-18T06:10:41;19.90;99.90
1049;DHT22;513;51.444;7.196;2022-07-18T06:13:09;19.90;99.90
1049;DHT22;513;51.444;7.196;2022-07-18T06:15:36;20.00;99.90
1049;DHT22;513;51.444;7.196;2022-07-18T06:18:03;20.00;99.90
1049;DHT22;513;51.444;7.196;2022-07-18T06:20:30;20.10;99.90
1049;DHT22;513;51.444;7.196;2022-07-18T06:22:56;20.20;99.90
1049;DHT22;513;51.444;7.196;2022-07-18T06:25:23;20.30;99.90
1049;DHT22;513;51.444;7.196;2022-07-18T06:27:50;20.40;99.90
1049;DHT22;513;51.444;7.196;2022-07-18T06:30:18;20.40;99.90
1049;DHT22;513;51.444;7.196;2022-07-18T06:32:44;20.50;99.90
1049;DHT22;513;51.444;7.196;2022-07-18T06:35:11;20.60;99.90
1049;DHT22;513;51.444;7.196;2022-07-18T06:37:38;20.70;99.90
1049;DHT22;513;51.444;7.196;2022-07-18T06:40:05;20.90;99.90
1049;DHT22;513;51.444;7.196;2022-07-18T06:42:33;21.00;99.90
1049;DHT22;513;51.444;7.196;2022-07-18T06:45:00;21.20;99.90
1049;DHT22;513;51.444;7.196;2022-07-18T06:47:28;21.30;99.90
1049;DHT22;513;51.444;7.196;2022-07-18T06:49:54;21.40;99.90
1049;DHT22;513;51.444;7.196;2022-07-18T06:52:21;21.50;99.90
1049;DHT22;513;51.444;7.196;2022-07-18T06:54:47;21.60;99.90
1049;DHT22;513;51.444;7.196;2022-07-18T06:57:14;21.80;99.90
1049;DHT22;513;51.444;7.196;2022-07-18T06:59:41;22.00;99.90
1049;DHT22;513;51.444;7.196;2022-07-18T07:02:08;22.20;99.90
1049;DHT22;513;51.444;7.196;2022-07-18T07:04:36;22.30;99.90
1049;DHT22;513;51.444;7.196;2022-07-18T07:07:03;22.50;99.90
1049;DHT22;513;51.444;7.196;2022-07-18T07:09:29;22.60;99.90
1049;DHT22;513;51.444;7.196;2022-07-18T07:11:56;22.80;99.90
1049;DHT22;513;51.444;7.196;2022-07-18T07:14:23;22.90;99.90
1049;DHT22;513;51.444;7.196;2022-07-18T07:16:49;23.00;99.90
1049;DHT22;513;51.444;7.196;2022-07-18T07:19:16;23.10;99.90
1049;DHT22;513;51.444;7.196;2022-07-18T07:21:44;23.20;99.90
1049;DHT22;513;51.444;7.196;2022-07-18T07:24:10;23.20;99.90
1049;DHT22;513;51.444;7.196;2022-07-18T07:26:37;23.40;99.90
1049;DHT22;513;51.444;7.196;2022-07-18T07:29:04;23.50;99.90
1049;DHT22;513;51.444;7.196;2022-07-18T07:31:30;23.70;99.90
1049;DHT22;513;51.444;7.196;2022-07-18T07:33:57;23.80;99.90
1049;DHT22;513;51.444;7.196;2022-07-18T07:36:23;24.00;99.90
1049;DHT22;513;51.444;7.196;2022-07-18T07:38:52;24.20;99.90
1049;DHT22;513;51.444;7.196;2022-07-18T07:41:19;24.40;99.90
1049;DHT22;513;51.444;7.196;2022-07-18T07:43:46;24.60;99.90
1049;DHT22;513;51.444;7.196;2022-07-18T07:46:13;24.70;99.90
1049;DHT22;513;51.444;7.196;2022-07-18T07:48:39;24.80;99.90
1049;DHT22;513;51.444;7.196;2022-07-18T07:51:06;24.90;99.90
1049;DHT22;513;51.444;7.196;2022-07-18T07:53:33;25.20;99.90
1049;DHT22;513;51.444;7.196;2022-07-18T07:56:01;25.30;99.90
1049;DHT22;513;51.444;7.196;2022-07-18T07:58:28;25.50;99.90
1049;DHT22;513;51.444;7.196;2022-07-18T08:00:54;25.70;99.90
1049;DHT22;513;51.444;7.196;2022-07-18T08:03:21;25.90;99.90
1049;DHT22;513;51.444;7.196;2022-07-18T08:05:49;26.10;99.90
1049;DHT22;513;51.444;7.196;2022-07-18T08:08:16;26.30;99.90
1049;DHT22;513;51.444;7.196;2022-07-18T08:10:44;26.50;99.90
1049;DHT22;513;51.444;7.196;2022-07-18T08:13:13;26.60;99.90
1049;DHT22;513;51.444;7.196;2022-07-18T08:15:40;26.80;99.90
1049;DHT22;513;51.444;7.196;2022-07-18T08:18:07;26.80;99.90
1049;DHT22;513;51.444;7.196;2022-07-18T08:20:34;26.80;99.90
1049;DHT22;513;51.444;7.196;2022-07-18T08:23:02;26.90;99.90
1049;DHT22;513;51.444;7.196;2022-07-18T08:25:31;27.00;99.90
1049;DHT22;513;51.444;7.196;2022-07-18T08:27:59;27.00;99.90
1049;DHT22;513;51.444;7.196;2022-07-18T08:30:28;27.20;99.90
1049;DHT22;513;51.444;7.196;2022-07-18T08:32:55;27.00;99.90
1049;DHT22;513;51.444;7.196;2022-07-18T08:35:22;27.20;99.90
1049;DHT22;513;51.444;7.196;2022-07-18T08:37:48;27.40;99.90
1049;DHT22;513;51.444;7.196;2022-07-18T08:40:15;27.50;99.90
1049;DHT22;513;51.444;7.196;2022-07-18T08:42:42;27.60;99.90
1049;DHT22;513;51.444;7.196;2022-07-18T08:45:09;27.70;99.90
1049;DHT22;513;51.444;7.196;2022-07-18T08:47:38;27.80;99.90
1049;DHT22;513;51.444;7.196;2022-07-18T08:50:05;27.90;99.90
1049;DHT22;513;51.444;7.196;2022-07-18T08:52:33;28.00;99.90
1049;DHT22;513;51.444;7.196;2022-07-18T08:55:01;28.00;99.90
1049;DHT22;513;51.444;7.196;2022-07-18T08:57:28;28.00;99.90
1049;DHT22;513;51.444;7.196;2022-07-18T08:59:55;28.00;99.90
1049;DHT22;513;51.444;7.196;2022-07-18T09:02:24;28.10;99.90
1049;DHT22;513;51.444;7.196;2022-07-18T09:04:53;28.30;99.90
1049;DHT22;513;51.444;7.196;2022-07-18T09:07:24;28.40;99.90
1049;DHT22;513;51.444;7.196;2022-07-18T09:09:52;28.40;99.90
1049;DHT22;513;51.444;7.196;2022-07-18T09:12:20;28.50;99.90
1049;DHT22;513;51.444;7.196;2022-07-18T09:14:47;28.30;99.90
1049;DHT22;513;51.444;7.196;2022-07-18T09:17:16;28.50;99.90
1049;DHT22;513;51.444;7.196;2022-07-18T09:19:59;28.60;99.90
1049;DHT22;513;51.444;7.196;2022-07-18T09:22:28;28.70;99.90
1049;DHT22;513;51.444;7.196;2022-07-18T09:24:58;28.80;99.90
1049;DHT22;513;51.444;7.196;2022-07-18T09:27:30;28.90;99.90
1049;DHT22;513;51.444;7.196;2022-07-18T09:30:23;29.00;99.90
1049;DHT22;513;51.444;7.196;2022-07-18T09:32:51;29.20;99.90
1049;DHT22;513;51.444;7.196;2022-07-18T09:35:21;29.20;99.90
1049;DHT22;513;51.444;7.196;2022-07-18T09:37:59;29.30;99.90
1049;DHT22;513;51.444;7.196;2022-07-18T09:40:29;29.30;99.90
1049;DHT22;513;51.444;7.196;2022-07-18T09:42:57;29.40;99.90
1049;DHT22;513;51.444;7.196;2022-07-18T09:45:26;29.50;99.90
1049;DHT22;513;51.444;7.196;2022-07-18T09:47:55;29.60;99.90
1049;DHT22;513;51.444;7.196;2022-07-18T09:50:28;29.50;99.90
1049;DHT22;513;51.444;7.196;2022-07-18T09:53:04;29.40;99.90
1049;DHT22;513;51.444;7.196;2022-07-18T09:55:32;29.40;99.90
1049;DHT22;513;51.444;7.196;2022-07-18T09:58:01;29.40;99.90
1049;DHT22;513;51.444;7.196;2022-07-18T10:00:29;29.40;99.90
1049;DHT22;513;51.444;7.196;2022-07-18T10:02:58;29.40;99.90
1049;DHT22;513;51.444;7.196;2022-07-18T10:05:29;29.60;99.90
1049;DHT22;513;51.444;7.196;2022-07-18T10:07:57;29.80;99.90
1049;DHT22;513;51.444;7.196;2022-07-18T10:10:24;30.00;99.90
1049;DHT22;513;51.444;7.196;2022-07-18T10:12:53;30.20;99.90
1049;DHT22;513;51.444;7.196;2022-07-18T10:15:21;30.40;99.90
1049;DHT22;513;51.444;7.196;2022-07-18T10:17:49;30.50;99.90
1049;DHT22;513;51.444;7.196;2022-07-18T10:20:15;30.50;99.90
1049;DHT22;513;51.444;7.196;2022-07-18T10:22:45;30.50;99.90
1049;DHT22;513;51.444;7.196;2022-07-18T10:25:13;30.50;99.90
1049;DHT22;513;51.444;7.196;2022-07-18T10:27:51;30.70;99.90
1049;DHT22;513;51.444;7.196;2022-07-18T10:30:29;30.60;99.90
1049;DHT22;513;51.444;7.196;2022-07-18T10:32:57;30.50;99.90
1049;DHT22;513;51.444;7.196;2022-07-18T10:38:24;30.60;99.90
1049;DHT22;513;51.444;7.196;2022-07-18T10:41:11;30.70;99.90
1049;DHT22;513;51.444;7.196;2022-07-18T10:43:43;31.00;99.90
1049;DHT22;513;51.444;7.196;2022-07-18T10:46:11;30.80;99.90
1049;DHT22;513;51.444;7.196;2022-07-18T10:48:54;30.90;99.90
1049;DHT22;513;51.444;7.196;2022-07-18T10:51:32;31.00;99.90
1049;DHT22;513;51.444;7.196;2022-07-18T10:54:10;30.80;99.90
1049;DHT22;513;51.444;7.196;2022-07-18T10:57:06;30.70;99.90
1049;DHT22;513;51.444;7.196;2022-07-18T10:59:34;30.70;99.90
1049;DHT22;513;51.444;7.196;2022-07-18T11:02:04;30.90;99.90
1049;DHT22;513;51.444;7.196;2022-07-18T11:04:35;31.10;99.90
1049;DHT22;513;51.444;7.196;2022-07-18T11:07:09;31.00;99.90
1049;DHT22;513;51.444;7.196;2022-07-18T11:09:40;31.10;99.90
1049;DHT22;513;51.444;7.196;2022-07-18T11:12:28;31.10;99.90
1049;DHT22;513;51.444;7.196;2022-07-18T11:15:05;31.20;99.90
1049;DHT22;513;51.444;7.196;2022-07-18T11:17:56;31.30;99.90
1049;DHT22;513;51.444;7.196;2022-07-18T11:20:26;31.40;99.90
1049;DHT22;513;51.444;7.196;2022-07-18T11:22:53;31.40;99.90
1049;DHT22;513;51.444;7.196;2022-07-18T11:25:24;30.90;99.90
1049;DHT22;513;51.444;7.196;2022-07-18T11:27:51;30.70;99.90
1049;DHT22;513;51.444;7.196;2022-07-18T11:30:19;30.50;99.90
1049;DHT22;513;51.444;7.196;2022-07-18T11:32:46;30.70;99.90
1049;DHT22;513;51.444;7.196;2022-07-18T11:35:13;31.00;99.90
1049;DHT22;513;51.444;7.196;2022-07-18T11:37:46;31.10;99.90
1049;DHT22;513;51.444;7.196;2022-07-18T11:40:14;31.30;99.90
1049;DHT22;513;51.444;7.196;2022-07-18T11:42:42;31.50;99.90
1049;DHT22;513;51.444;7.196;2022-07-18T11:45:11;31.70;99.90
1049;DHT22;513;51.444;7.196;2022-07-18T11:47:38;31.70;99.90
1049;DHT22;513;51.444;7.196;2022-07-18T11:50:06;31.50;99.90
1049;DHT22;513;51.444;7.196;2022-07-18T11:52:33;31.40;99.90
1049;DHT22;513;51.444;7.196;2022-07-18T11:55:03;31.50;99.90
1049;DHT22;513;51.444;7.196;2022-07-18T11:57:31;31.50;99.90
1049;DHT22;513;51.444;7.196;2022-07-18T12:00:00;31.50;99.90
1049;DHT22;513;51.444;7.196;2022-07-18T12:02:27;31.70;99.90
1049;DHT22;513;51.444;7.196;2022-07-18T12:04:54;31.50;99.90
1049;DHT22;513;51.444;7.196;2022-07-18T12:07:24;31.40;99.90
1049;DHT22;513;51.444;7.196;2022-07-18T12:09:52;31.60;99.90
1049;DHT22;513;51.444;7.196;2022-07-18T12:12:20;31.80;99.90
1049;DHT22;513;51.444;7.196;2022-07-18T12:14:59;31.90;99.90
1049;DHT22;513;51.444;7.196;2022-07-18T12:17:28;32.00;99.90
1049;DHT22;513;51.444;7.196;2022-07-18T12:20:10;32.00;99.90
1049;DHT22;513;51.444;7.196;2022-07-18T12:23:09;32.00;99.90
1049;DHT22;513;51.444;7.196;2022-07-18T12:25:55;32.20;99.90
1049;DHT22;513;51.444;7.196;2022-07-18T12:28:25;32.30;99.90
1049;DHT22;513;51.444;7.196;2022-07-18T12:30:52;32.40;99.90
1049;DHT22;513;51.444;7.196;2022-07-18T12:33:19;32.60;99.90
1049;DHT22;513;51.444;7.196;2022-07-18T12:35:45;32.20;99.90
1049;DHT22;513;51.444;7.196;2022-07-18T12:38:15;32.30;99.90
1049;DHT22;513;51.444;7.196;2022-07-18T12:40:45;32.40;99.90
1049;DHT22;513;51.444;7.196;2022-07-18T12:43:13;32.40;99.90
1049;DHT22;513;51.444;7.196;2022-07-18T12:45:41;32.40;99.90
1049;DHT22;513;51.444;7.196;2022-07-18T12:48:09;32.40;99.90
1049;DHT22;513;51.444;7.196;2022-07-18T12:50:37;32.70;99.90
1049;DHT22;513;51.444;7.196;2022-07-18T12:53:05;32.80;99.90
1049;DHT22;513;51.444;7.196;2022-07-18T12:55:33;32.70;99.90
1049;DHT22;513;51.444;7.196;2022-07-18T12:58:00;32.80;99.90
1049;DHT22;513;51.444;7.196;2022-07-18T13:00:27;32.90;99.90
1049;DHT22;513;51.444;7.196;2022-07-18T13:02:55;33.00;99.90
1049;DHT22;513;51.444;7.196;2022-07-18T13:05:23;32.80;99.90
1049;DHT22;513;51.444;7.196;2022-07-18T13:07:50;33.00;99.90
1049;DHT22;513;51.444;7.196;2022-07-18T13:10:16;33.00;99.90
1049;DHT22;513;51.444;7.196;2022-07-18T13:12:45;32.90;99.90
1049;DHT22;513;51.444;7.196;2022-07-18T13:15:11;32.80;99.90
1049;DHT22;513;51.444;7.196;2022-07-18T13:17:38;33.00;99.90
1049;DHT22;513;51.444;7.196;2022-07-18T13:20:06;33.10;99.90
1049;DHT22;513;51.444;7.196;2022-07-18T13:22:33;33.10;99.90
1049;DHT22;513;51.444;7.196;2022-07-18T13:25:04;33.10;99.90
1049;DHT22;513;51.444;7.196;2022-07-18T13:27:32;33.20;99.90
1049;DHT22;513;51.444;7.196;2022-07-18T13:30:00;33.20;99.90
1049;DHT22;513;51.444;7.196;2022-07-18T13:32:27;33.00;99.90
1049;DHT22;513;51.444;7.196;2022-07-18T13:34:54;33.00;99.90
1049;DHT22;513;51.444;7.196;2022-07-18T13:37:21;32.90;99.90
1049;DHT22;513;51.444;7.196;2022-07-18T13:39:51;32.80;99.90
1049;DHT22;513;51.444;7.196;2022-07-18T13:42:18;32.80;99.90
1049;DHT22;513;51.444;7.196;2022-07-18T13:44:44;33.00;99.90
1049;DHT22;513;51.444;7.196;2022-07-18T13:47:12;32.90;99.90
1049;DHT22;513;51.444;7.196;2022-07-18T13:49:40;33.00;99.90
1049;DHT22;513;51.444;7.196;2022-07-18T13:52:07;32.80;99.90
1049;DHT22;513;51.444;7.196;2022-07-18T13:54:33;33.00;99.90
1049;DHT22;513;51.444;7.196;2022-07-18T13:57:00;33.10;99.90
1049;DHT22;513;51.444;7.196;2022-07-18T13:59:27;33.30;99.90
1049;DHT22;513;51.444;7.196;2022-07-18T14:01:53;33.40;99.90
1049;DHT22;513;51.444;7.196;2022-07-18T14:04:22;33.40;99.90
1049;DHT22;513;51.444;7.196;2022-07-18T14:06:49;33.60;99.90
1049;DHT22;513;51.444;7.196;2022-07-18T14:09:16;33.70;99.90
1049;DHT22;513;51.444;7.196;2022-07-18T14:11:43;33.80;99.90
1049;DHT22;513;51.444;7.196;2022-07-18T14:14:09;33.80;99.90
1049;DHT22;513;51.444;7.196;2022-07-18T14:16:36;33.70;99.90
1049;DHT22;513;51.444;7.196;2022-07-18T14:19:03;33.70;99.90
1049;DHT22;513;51.444;7.196;2022-07-18T14:21:31;33.40;99.90
1049;DHT22;513;51.444;7.196;2022-07-18T14:23:58;33.20;99.90
1049;DHT22;513;51.444;7.196;2022-07-18T14:26:25;32.90;99.90
1049;DHT22;513;51.444;7.196;2022-07-18T14:28:52;33.00;99.90
1049;DHT22;513;51.444;7.196;2022-07-18T14:31:19;33.20;99.90
1049;DHT22;513;51.444;7.196;2022-07-18T14:33:46;32.90;99.90
1049;DHT22;513;51.444;7.196;2022-07-18T14:36:13;32.80;99.90
1049;DHT22;513;51.444;7.196;2022-07-18T14:38:41;33.00;99.90
1049;DHT22;513;51.444;7.196;2022-07-18T14:41:08;33.20;99.90
1049;DHT22;513;51.444;7.196;2022-07-18T14:43:35;33.20;99.90
1049;DHT22;513;51.444;7.196;2022-07-18T14:46:02;33.40;99.90
1049;DHT22;513;51.444;7.196;2022-07-18T14:48:28;33.40;99.90
1049;DHT22;513;51.444;7.196;2022-07-18T14:50:55;33.30;99.90
1049;DHT22;513;51.444;7.196;2022-07-18T14:53:22;33.40;99.90
1049;DHT22;513;51.444;7.196;2022-07-18T14:55:50;33.30;99.90
1049;DHT22;513;51.444;7.196;2022-07-18T14:58:17;33.30;99.90
1049;DHT22;513;51.444;7.196;2022-07-18T15:00:44;33.30;99.90
1049;DHT22;513;51.444;7.196;2022-07-18T15:03:10;33.00;99.90
1049;DHT22;513;51.444;7.196;2022-07-18T15:05:37;32.90;99.90
1049;DHT22;513;51.444;7.196;2022-07-18T15:08:04;33.20;99.90
1049;DHT22;513;51.444;7.196;2022-07-18T15:10:31;33.50;99.90
1049;DHT22;513;51.444;7.196;2022-07-18T15:12:59;33.80;99.90
1049;DHT22;513;51.444;7.196;2022-07-18T15:15:26;34.00;99.90
1049;DHT22;513;51.444;7.196;2022-07-18T15:17:53;33.80;99.90
1049;DHT22;513;51.444;7.196;2022-07-18T15:20:20;33.80;99.90
1049;DHT22;513;51.444;7.196;2022-07-18T15:22:47;33.80;99.90
1049;DHT22;513;51.444;7.196;2022-07-18T15:25:13;33.90;99.90
1049;DHT22;513;51.444;7.196;2022-07-18T15:27:40;34.00;99.90
1049;DHT22;513;51.444;7.196;2022-07-18T15:30:09;34.00;99.90
1049;DHT22;513;51.444;7.196;2022-07-18T15:32:35;34.00;99.90
1049;DHT22;513;51.444;7.196;2022-07-18T15:35:03;33.90;99.90
1049;DHT22;513;51.444;7.196;2022-07-18T15:37:30;34.10;99.90
1049;DHT22;513;51.444;7.196;2022-07-18T15:39:57;34.20;99.90
1049;DHT22;513;51.444;7.196;2022-07-18T15:42:23;33.80;99.90
1049;DHT22;513;51.444;7.196;2022-07-18T15:44:50;33.90;99.90
1049;DHT22;513;51.444;7.196;2022-07-18T15:47:18;34.10;99.90
1049;DHT22;513;51.444;7.196;2022-07-18T15:49:45;34.30;99.90
1049;DHT22;513;51.444;7.196;2022-07-18T15:52:12;34.40;99.90
1049;DHT22;513;51.444;7.196;2022-07-18T15:54:38;34.00;99.90
1049;DHT22;513;51.444;7.196;2022-07-18T15:57:05;34.00;99.90
1049;DHT22;513;51.444;7.196;2022-07-18T15:59:33;34.20;99.90
1049;DHT22;513;51.444;7.196;2022-07-18T16:01:59;34.10;99.90
1049;DHT22;513;51.444;7.196;2022-07-18T16:04:27;34.20;99.90
1049;DHT22;513;51.444;7.196;2022-07-18T16:06:54;34.40;99.90
1049;DHT22;513;51.444;7.196;2022-07-18T16:09:21;34.10;99.90
1049;DHT22;513;51.444;7.196;2022-07-18T16:11:48;34.20;99.90
1049;DHT22;513;51.444;7.196;2022-07-18T16:14:15;34.40;99.90
1049;DHT22;513;51.444;7.196;2022-07-18T16:16:42;34.60;99.90
1049;DHT22;513;51.444;7.196;2022-07-18T16:19:09;34.20;99.90
1049;DHT22;513;51.444;7.196;2022-07-18T16:21:38;34.30;99.90
1049;DHT22;513;51.444;7.196;2022-07-18T16:24:05;34.40;99.90
1049;DHT22;513;51.444;7.196;2022-07-18T16:26:32;34.60;99.90